createdAt,value
2023-05-14T00:02:23.287Z,101780.59
2023-05-14T00:04:55.664Z,101774.38
2023-05-14T00:07:30.913Z,101777.97
2023-05-14T00:10:03.439Z,101778.84
2023-05-14T00:12:35.662Z,101775.31
2023-05-14T00:15:08.244Z,101765.53
2023-05-14T00:17:40.649Z,101766.44
2023-05-14T00:20:12.859Z,101762.91
2023-05-14T00:22:45.160Z,101754.00
2023-05-14T00:25:17.509Z,101749.56
2023-05-14T00:27:49.680Z,101739.78
2023-05-14T00:30:22.212Z,101742.47
2023-05-14T00:32:54.511Z,101739.78
2023-05-14T00:35:26.604Z,101747.00
2023-05-14T00:37:58.833Z,101738.97
2023-05-14T00:40:31.173Z,101737.25
2023-05-14T00:43:03.807Z,101731.88
2023-05-14T00:45:36.022Z,101728.38
2023-05-14T00:48:08.432Z,101728.38
2023-05-14T00:50:40.921Z,101726.63
2023-05-14T00:53:13.448Z,101732.91
2023-05-14T00:55:46.949Z,101738.25
2023-05-14T00:58:19.582Z,101732.94
2023-05-14T01:00:52.290Z,101721.38
2023-05-14T01:03:24.490Z,101714.28
2023-05-14T01:05:57.222Z,101714.28
2023-05-14T01:08:49.378Z,101716.94
2023-05-14T01:11:27.679Z,101701.91
2023-05-14T01:14:02.830Z,101708.09
2023-05-14T01:16:37.434Z,101701.94
2023-05-14T01:19:10.648Z,101700.19
2023-05-14T01:21:43.537Z,101700.19
2023-05-14T01:24:17.188Z,101700.19
2023-05-14T01:26:49.617Z,101709.13
2023-05-14T01:29:22.565Z,101702.03
2023-05-14T01:31:55.678Z,101690.47
2023-05-14T01:34:29.453Z,101694.94
2023-05-14T01:37:02.098Z,101696.75
2023-05-14T01:39:37.946Z,101696.75
2023-05-14T01:42:11.055Z,101691.44
2023-05-14T01:44:43.337Z,101688.78
2023-05-14T01:47:15.695Z,101699.47
2023-05-14T01:49:47.953Z,101696.84
2023-05-14T01:52:21.279Z,101695.97
2023-05-14T01:54:53.344Z,101693.31
2023-05-14T01:57:25.672Z,101686.19
2023-05-14T01:59:57.815Z,101687.13
2023-05-14T02:02:30.054Z,101696.06
2023-05-14T02:05:02.679Z,101682.72
2023-05-14T02:07:35.636Z,101689.88
2023-05-14T02:10:08.084Z,101689.00
2023-05-14T02:12:40.244Z,101691.69
2023-05-14T02:15:12.871Z,101684.59
2023-05-14T02:17:45.126Z,101680.19
2023-05-14T02:20:17.251Z,101681.94
2023-05-14T02:22:50.025Z,101673.97
2023-05-14T02:25:22.554Z,101673.06
2023-05-14T02:27:54.689Z,101670.47
2023-05-14T02:30:26.950Z,101664.22
2023-05-14T02:32:59.547Z,101659.84
2023-05-14T02:35:31.728Z,101655.34
2023-05-14T02:38:04.684Z,101654.47
2023-05-14T02:40:37.153Z,101646.50
2023-05-14T02:43:09.956Z,101646.56
2023-05-14T02:45:42.182Z,101649.25
2023-05-14T02:48:14.414Z,101650.16
2023-05-14T02:50:46.979Z,101648.38
2023-05-14T02:53:19.308Z,101642.19
2023-05-14T02:55:51.576Z,101643.13
2023-05-14T02:58:27.158Z,101642.22
2023-05-14T03:01:00.732Z,101641.34
2023-05-14T03:03:33.910Z,101634.25
2023-05-14T03:06:06.606Z,101634.25
2023-05-14T03:08:38.770Z,101631.63
2023-05-14T03:11:11.468Z,101636.97
2023-05-14T03:13:43.549Z,101627.22
2023-05-14T03:16:15.860Z,101640.59
2023-05-14T03:18:48.128Z,101630.81
2023-05-14T03:21:20.298Z,101631.72
2023-05-14T03:23:53.156Z,101630.00
2023-05-14T03:26:25.369Z,101632.66
2023-05-14T03:28:58.319Z,101636.25
2023-05-14T03:31:30.690Z,101632.72
2023-05-14T03:34:02.797Z,101632.72
2023-05-14T03:36:36.394Z,101630.09
2023-05-14T03:39:09.531Z,101627.44
2023-05-14T03:41:41.833Z,101622.13
2023-05-14T03:44:14.229Z,101629.25
2023-05-14T03:46:46.409Z,101625.69
2023-05-14T03:49:18.549Z,101617.72
2023-05-14T03:51:50.865Z,101617.72
2023-05-14T03:54:23.100Z,101619.53
2023-05-14T03:56:55.300Z,101613.31
2023-05-14T03:59:27.819Z,101614.25
2023-05-14T04:02:00.060Z,101609.84
2023-05-14T04:04:32.367Z,101611.59
2023-05-14T04:07:04.693Z,101604.53
2023-05-14T04:09:36.876Z,101607.22
2023-05-14T04:12:09.330Z,101612.59
2023-05-14T04:14:41.407Z,101612.59
2023-05-14T04:17:13.589Z,101610.84
2023-05-14T04:19:45.700Z,101609.97
2023-05-14T04:22:17.830Z,101599.28
2023-05-14T04:24:49.926Z,101609.06
2023-05-14T04:27:22.497Z,101609.16
2023-05-14T04:29:54.782Z,101605.59
2023-05-14T04:32:27.093Z,101607.41
2023-05-14T04:34:59.187Z,101607.44
2023-05-14T04:37:31.874Z,101609.19
2023-05-14T04:40:04.794Z,101602.09
2023-05-14T04:42:37.260Z,101617.25
2023-05-14T04:45:09.946Z,101610.16
2023-05-14T04:47:42.257Z,101609.28
2023-05-14T04:50:14.550Z,101602.19
2023-05-14T04:52:46.775Z,101598.69
2023-05-14T04:55:20.399Z,101595.09
2023-05-14T04:57:52.532Z,101594.22
2023-05-14T05:00:25.430Z,101606.72
2023-05-14T05:02:57.972Z,101607.63
2023-05-14T05:05:31.355Z,101599.66
2023-05-14T05:08:03.787Z,101601.41
2023-05-14T05:10:36.077Z,101605.88
2023-05-14T05:13:08.230Z,101596.13
2023-05-14T05:15:40.353Z,101605.94
2023-05-14T05:18:12.510Z,101603.25
2023-05-14T05:20:44.583Z,101606.84
2023-05-14T05:23:16.746Z,101606.84
2023-05-14T05:25:49.133Z,101609.56
2023-05-14T05:28:21.329Z,101614.91
2023-05-14T05:30:53.489Z,101609.56
2023-05-14T05:33:25.714Z,101610.47
2023-05-14T05:35:57.808Z,101606.94
2023-05-14T05:38:29.983Z,101601.59
2023-05-14T05:41:02.247Z,101611.41
2023-05-14T05:43:34.414Z,101596.28
2023-05-14T05:46:07.297Z,101601.63
2023-05-14T05:48:39.437Z,101602.53
2023-05-14T05:51:11.795Z,101598.09
2023-05-14T05:53:43.896Z,101603.44
2023-05-14T05:56:16.061Z,101598.97
2023-05-14T05:58:48.330Z,101593.63
2023-05-14T06:01:20.655Z,101594.53
2023-05-14T06:03:53.147Z,101590.03
2023-05-14T06:06:25.418Z,101587.38
2023-05-14T06:08:57.516Z,101590.91
2023-05-14T06:11:29.620Z,101584.66
2023-05-14T06:14:01.828Z,101584.63
2023-05-14T06:16:34.072Z,101590.78
2023-05-14T06:19:06.495Z,101590.72
2023-05-14T06:21:38.674Z,101584.41
2023-05-14T06:24:11.005Z,101580.81
2023-05-14T06:26:43.304Z,101569.22
2023-05-14T06:29:16.465Z,101575.38
2023-05-14T06:31:48.638Z,101573.53
2023-05-14T06:34:21.037Z,101576.16
2023-05-14T06:36:53.176Z,101574.34
2023-05-14T06:39:25.686Z,101571.63
2023-05-14T06:41:58.246Z,101570.72
2023-05-14T06:44:30.427Z,101568.91
2023-05-14T06:47:02.620Z,101568.00
2023-05-14T06:49:35.486Z,101575.13
2023-05-14T06:52:08.337Z,101572.44
2023-05-14T06:54:40.539Z,101559.09
2023-05-14T06:57:12.888Z,101560.81
2023-05-14T06:59:45.019Z,101560.81
2023-05-14T07:02:17.264Z,101561.72
2023-05-14T07:04:49.378Z,101551.88
2023-05-14T07:07:21.646Z,101549.19
2023-05-14T07:09:53.848Z,101551.81
2023-05-14T07:12:25.992Z,101550.84
2023-05-14T07:14:58.146Z,101551.69
2023-05-14T07:17:30.414Z,101548.09
2023-05-14T07:20:02.931Z,101544.50
2023-05-14T07:22:35.115Z,101543.56
2023-05-14T07:25:07.887Z,101537.31
2023-05-14T07:27:41.027Z,101538.13
2023-05-14T07:30:13.359Z,101541.69
2023-05-14T07:32:45.920Z,101541.63
2023-05-14T07:35:18.289Z,101538.91
2023-05-14T07:37:50.669Z,101539.78
2023-05-14T07:40:25.371Z,101531.78
2023-05-14T07:42:59.255Z,101536.13
2023-05-14T07:45:31.602Z,101526.31
2023-05-14T07:48:03.838Z,101538.75
2023-05-14T07:50:36.810Z,101541.38
2023-05-14T07:53:08.926Z,101541.38
2023-05-14T07:55:42.118Z,101536.91
2023-05-14T07:58:14.218Z,101531.56
2023-05-14T08:00:46.359Z,101538.66
2023-05-14T08:03:18.880Z,101536.78
2023-05-14T08:05:51.901Z,101531.44
2023-05-14T08:08:23.983Z,101535.88
2023-05-14T08:10:56.336Z,101535.81
2023-05-14T08:13:28.544Z,101536.69
2023-05-14T08:16:00.909Z,101525.09
2023-05-14T08:18:33.038Z,101525.91
2023-05-14T08:21:05.450Z,101529.47
2023-05-14T08:23:37.620Z,101527.66
2023-05-14T08:26:09.998Z,101529.38
2023-05-14T08:28:42.248Z,101524.88
2023-05-14T08:31:15.850Z,101513.25
2023-05-14T08:33:48.326Z,101517.72
2023-05-14T08:36:20.647Z,101516.81
2023-05-14T08:38:52.968Z,101515.84
2023-05-14T08:41:25.506Z,101516.66
2023-05-14T08:44:05.532Z,101522.00
2023-05-14T08:46:38.858Z,101518.44
2023-05-14T08:49:17.384Z,101515.69
2023-05-14T08:51:51.339Z,101514.78
2023-05-14T08:54:26.378Z,101514.72
2023-05-14T08:56:59.442Z,101522.69
2023-05-14T08:59:31.929Z,101509.25
2023-05-14T09:02:06.344Z,101514.50
2023-05-14T09:04:39.229Z,101516.25
2023-05-14T09:07:12.101Z,101510.81
2023-05-14T09:09:47.472Z,101506.28
2023-05-14T09:12:20.091Z,101510.69
2023-05-14T09:14:52.626Z,101509.75
2023-05-14T09:17:27.906Z,101509.69
2023-05-14T09:20:00.204Z,101502.53
2023-05-14T09:22:32.870Z,101503.38
2023-05-14T09:25:06.568Z,101503.38
2023-05-14T09:27:39.507Z,101501.53
2023-05-14T09:30:13.216Z,101497.03
2023-05-14T09:32:46.225Z,101488.97
2023-05-14T09:35:20.162Z,101489.84
2023-05-14T09:37:54.121Z,101497.78
2023-05-14T09:40:26.684Z,101496.81
2023-05-14T09:42:59.181Z,101486.13
2023-05-14T09:45:31.961Z,101484.31
2023-05-14T09:48:04.533Z,101487.00
2023-05-14T09:50:43.516Z,101486.13
2023-05-14T09:53:15.923Z,101479.91
2023-05-14T09:55:49.412Z,101478.16
2023-05-14T09:58:21.690Z,101481.78
2023-05-14T10:00:55.244Z,101475.53
2023-05-14T10:03:29.712Z,101475.59
2023-05-14T10:06:05.018Z,101472.09
2023-05-14T10:08:39.035Z,101474.78
2023-05-14T10:11:15.757Z,101467.69
2023-05-14T10:13:54.170Z,101473.03
2023-05-14T10:16:26.503Z,101469.50
2023-05-14T10:19:03.177Z,101464.19
2023-05-14T10:21:37.926Z,101468.69
2023-05-14T10:24:11.634Z,101472.22
2023-05-14T10:26:45.184Z,101478.50
2023-05-14T10:29:17.645Z,101470.50
2023-05-14T10:31:51.392Z,101476.69
2023-05-14T10:34:38.007Z,101467.81
2023-05-14T10:37:11.409Z,101463.34
2023-05-14T10:39:46.817Z,101469.59
2023-05-14T10:42:19.215Z,101456.22
2023-05-14T10:44:58.048Z,101452.75
2023-05-14T10:47:31.417Z,101447.28
2023-05-14T10:50:05.113Z,101445.47
2023-05-14T10:52:37.284Z,101436.59
2023-05-14T10:55:15.016Z,101440.13
2023-05-14T10:57:47.514Z,101432.13
2023-05-14T11:00:19.845Z,101426.75
2023-05-14T11:02:55.420Z,101426.75
2023-05-14T11:05:27.886Z,101426.75
2023-05-14T11:08:02.093Z,101424.97
2023-05-14T11:10:36.226Z,101417.81
2023-05-14T11:13:08.626Z,101426.72
2023-05-14T11:15:47.096Z,101421.34
2023-05-14T11:18:28.834Z,101424.91
2023-05-14T11:21:01.375Z,101419.56
2023-05-14T11:23:33.625Z,101410.63
2023-05-14T11:26:07.125Z,101410.63
2023-05-14T11:28:40.943Z,101407.94
2023-05-14T11:31:13.072Z,101405.25
2023-05-14T11:33:45.252Z,101409.69
2023-05-14T11:36:17.875Z,101404.28
2023-05-14T11:38:51.601Z,101405.16
2023-05-14T11:41:23.931Z,101402.47
2023-05-14T11:43:56.122Z,101402.47
2023-05-14T11:46:30.190Z,101393.53
2023-05-14T11:49:04.706Z,101396.22
2023-05-14T11:51:37.380Z,101398.84
2023-05-14T11:54:09.520Z,101383.66
2023-05-14T11:56:41.714Z,101380.03
2023-05-14T11:59:17.013Z,101380.03
2023-05-14T12:01:50.692Z,101373.75
2023-05-14T12:04:23.243Z,101376.44
2023-05-14T12:06:57.973Z,101378.19
2023-05-14T12:09:30.133Z,101368.34
2023-05-14T12:12:08.158Z,101365.63
2023-05-14T12:14:42.629Z,101365.63
2023-05-14T12:17:16.182Z,101353.06
2023-05-14T12:19:49.710Z,101354.81
2023-05-14T12:22:22.525Z,101356.53
2023-05-14T12:24:54.788Z,101352.94
2023-05-14T12:27:28.781Z,101349.28
2023-05-14T12:30:27.481Z,101351.97
2023-05-14T12:32:55.670Z,101343.88
2023-05-14T12:35:28.108Z,101336.66
2023-05-14T12:38:00.751Z,101338.38
2023-05-14T12:40:33.117Z,101335.66
2023-05-14T12:43:05.172Z,101332.91
2023-05-14T12:49:31.391Z,101330.94
2023-05-14T12:52:22.807Z,101329.94
2023-05-14T12:54:58.555Z,101332.56
2023-05-14T12:57:30.880Z,101321.75
2023-05-14T13:00:07.041Z,101313.66
2023-05-14T13:02:42.618Z,101313.53
2023-05-14T13:05:16.084Z,101311.59
2023-05-14T13:07:48.381Z,101314.16
2023-05-14T13:10:20.628Z,101309.53
2023-05-14T13:12:52.856Z,101295.16
2023-05-14T13:15:26.300Z,101301.22
2023-05-14T13:17:58.696Z,101293.03
2023-05-14T13:20:31.727Z,101300.06
2023-05-14T13:23:04.039Z,101292.78
2023-05-14T13:25:36.663Z,101297.06
2023-05-14T13:28:08.871Z,101290.69
2023-05-14T13:30:41.015Z,101281.66
2023-05-14T13:33:13.217Z,101280.63
2023-05-14T13:35:45.909Z,101279.53
2023-05-14T13:38:18.328Z,101269.53
2023-05-14T13:40:50.592Z,101272.03
2023-05-14T13:43:23.463Z,101270.00
2023-05-14T13:45:56.283Z,101275.16
2023-05-14T13:48:28.570Z,101266.94
2023-05-14T13:51:00.787Z,101277.28
2023-05-14T13:53:35.457Z,101269.78
2023-05-14T13:56:08.697Z,101267.63
2023-05-14T13:58:41.035Z,101260.84
2023-05-14T14:01:13.173Z,101254.72
2023-05-14T14:03:45.386Z,101247.41
2023-05-14T14:06:17.510Z,101250.72
2023-05-14T14:08:51.061Z,101236.31
2023-05-14T14:11:23.248Z,101240.13
2023-05-14T14:13:55.618Z,101240.59
2023-05-14T14:16:28.035Z,101243.94
2023-05-14T14:19:00.278Z,101235.91
2023-05-14T14:21:32.891Z,101219.88
2023-05-14T14:24:05.446Z,101219.94
2023-05-14T14:26:37.918Z,101218.34
2023-05-14T14:29:10.087Z,101208.88
2023-05-14T14:31:43.630Z,101195.75
2023-05-14T14:34:15.854Z,101191.66
2023-05-14T14:36:47.985Z,101175.88
2023-05-14T14:39:21.179Z,101177.91
2023-05-14T14:41:53.406Z,101186.25
2023-05-14T14:44:27.715Z,101176.66
2023-05-14T14:47:00.268Z,101178.59
2023-05-14T14:49:32.476Z,101177.81
2023-05-14T14:52:04.819Z,101181.53
2023-05-14T14:54:38.016Z,101181.59
2023-05-14T14:57:10.569Z,101176.31
2023-05-14T14:59:42.760Z,101179.00
2023-05-14T15:02:15.169Z,101181.59
2023-05-14T15:04:47.358Z,101179.63
2023-05-14T15:07:20.520Z,101169.38
2023-05-14T15:09:52.692Z,101164.44
2023-05-14T15:12:24.827Z,101168.44
2023-05-14T15:14:56.967Z,101167.09
2023-05-14T15:17:29.396Z,101163.34
2023-05-14T15:20:01.608Z,101149.84
2023-05-14T15:22:35.409Z,101156.13
2023-05-14T15:25:07.877Z,101145.47
2023-05-14T15:27:40.064Z,101143.03
2023-05-14T15:30:12.621Z,101150.44
2023-05-14T15:32:45.688Z,101140.06
2023-05-14T15:35:18.704Z,101141.22
2023-05-14T15:37:51.370Z,101139.72
2023-05-14T15:40:24.582Z,101139.09
2023-05-14T15:42:56.936Z,101135.59
2023-05-14T15:45:29.107Z,101138.13
2023-05-14T15:48:01.360Z,101135.84
2023-05-14T15:50:33.651Z,101129.59
2023-05-14T15:53:05.948Z,101131.34
2023-05-14T15:55:38.233Z,101129.44
2023-05-14T15:58:10.516Z,101127.69
2023-05-14T16:00:42.837Z,101129.00
2023-05-14T16:03:15.167Z,101123.63
2023-05-14T16:05:48.712Z,101123.78
2023-05-14T16:08:20.830Z,101123.19
2023-05-14T16:10:53.107Z,101124.19
2023-05-14T16:13:25.451Z,101119.97
2023-05-14T16:15:59.546Z,101109.47
2023-05-14T16:18:33.301Z,101112.34
2023-05-14T16:21:06.371Z,101110.88
2023-05-14T16:23:40.583Z,101104.00
2023-05-14T16:26:12.732Z,101101.59
2023-05-14T16:28:44.795Z,101100.84
2023-05-14T16:31:18.990Z,101103.69
2023-05-14T16:33:51.139Z,101095.84
2023-05-14T16:36:23.269Z,101097.72
2023-05-14T16:39:07.281Z,101097.88
2023-05-14T16:41:49.221Z,101096.31
2023-05-14T16:44:21.454Z,101090.25
2023-05-14T16:46:53.972Z,101093.94
2023-05-14T16:49:26.275Z,101088.66
2023-05-14T16:52:00.601Z,101087.78
2023-05-14T16:54:32.737Z,101084.94
2023-05-14T16:57:06.160Z,101088.25
2023-05-14T16:59:38.769Z,101086.19
2023-05-14T17:02:12.901Z,101083.19
2023-05-14T17:04:45.275Z,101082.94
2023-05-14T17:07:17.572Z,101086.34
2023-05-14T17:09:49.826Z,101085.38
2023-05-14T17:12:22.155Z,101087.91
2023-05-14T17:14:54.423Z,101081.66
2023-05-14T17:17:26.956Z,101078.19
2023-05-14T17:20:00.198Z,101075.69
2023-05-14T17:22:32.656Z,101073.22
2023-05-14T17:25:05.572Z,101075.31
2023-05-14T17:27:37.865Z,101068.47
2023-05-14T17:30:11.609Z,101073.09
2023-05-14T17:32:44.315Z,101070.69
2023-05-14T17:35:16.719Z,101069.94
2023-05-14T17:37:49.055Z,101066.47
2023-05-14T17:40:21.789Z,101066.63
2023-05-14T17:42:57.127Z,101064.91
2023-05-14T17:45:36.508Z,101059.72
2023-05-14T17:48:15.085Z,101059.88
2023-05-14T17:50:48.637Z,101063.50
2023-05-14T17:53:21.506Z,101059.16
2023-05-14T17:55:53.595Z,101066.41
2023-05-14T17:58:26.134Z,101065.53
2023-05-14T18:00:58.806Z,101061.03
2023-05-14T18:03:32.444Z,101062.78
2023-05-14T18:06:04.851Z,101069.09
2023-05-14T18:08:37.043Z,101060.19
2023-05-14T18:11:09.395Z,101060.25
2023-05-14T18:13:41.539Z,101070.22
2023-05-14T18:16:13.939Z,101067.59
2023-05-14T18:18:46.912Z,101070.34
2023-05-14T18:21:19.172Z,101066.00
2023-05-14T18:23:51.372Z,101067.91
2023-05-14T18:26:23.897Z,101071.56
2023-05-14T18:28:57.425Z,101058.28
2023-05-14T18:31:29.682Z,101058.38
2023-05-14T18:34:02.530Z,101066.50
2023-05-14T18:36:34.939Z,101057.66
2023-05-14T18:39:07.138Z,101060.44
2023-05-14T18:41:40.782Z,101066.81
2023-05-14T18:44:12.897Z,101063.34
2023-05-14T18:46:45.637Z,101058.97
2023-05-14T18:49:18.322Z,101065.31
2023-05-14T18:51:50.810Z,101058.28
2023-05-14T18:54:22.993Z,101066.38
2023-05-14T18:56:55.752Z,101062.03
2023-05-14T18:59:27.846Z,101067.47
2023-05-14T19:02:00.912Z,101063.97
2023-05-14T19:04:33.552Z,101063.19
2023-05-14T19:07:06.361Z,101060.59
2023-05-14T19:09:38.468Z,101065.16
2023-05-14T19:12:10.657Z,101060.75
2023-05-14T19:14:44.111Z,101056.41
2023-05-14T19:17:20.624Z,101066.25
2023-05-14T19:19:52.913Z,101061.00
2023-05-14T19:22:25.115Z,101064.59
2023-05-14T19:24:57.462Z,101063.81
2023-05-14T19:27:29.654Z,101070.97
2023-05-14T19:30:01.850Z,101066.56
2023-05-14T19:32:34.045Z,101063.97
2023-05-14T19:35:06.358Z,101077.44
2023-05-14T19:37:38.493Z,101085.50
2023-05-14T19:40:12.006Z,101074.84
2023-05-14T19:42:44.234Z,101073.97
2023-05-14T19:45:17.191Z,101082.09
2023-05-14T19:47:49.660Z,101087.44
2023-05-14T19:50:22.094Z,101075.06
2023-05-14T19:52:57.392Z,101078.59
2023-05-14T19:55:29.646Z,101080.41
2023-05-14T19:58:05.036Z,101084.91
2023-05-14T20:00:37.484Z,101089.38
2023-05-14T20:03:13.887Z,101079.63
2023-05-14T20:05:46.672Z,101078.78
2023-05-14T20:08:20.813Z,101088.59
2023-05-14T20:10:52.946Z,101086.88
2023-05-14T20:13:25.452Z,101084.19
2023-05-14T20:15:58.765Z,101076.16
2023-05-14T20:18:31.329Z,101076.25
2023-05-14T20:21:04.434Z,101078.03
2023-05-14T20:23:36.805Z,101072.66
2023-05-14T20:26:09.105Z,101070.94
2023-05-14T20:28:43.496Z,101070.94
2023-05-14T20:31:15.689Z,101073.63
2023-05-14T20:33:48.646Z,101069.19
2023-05-14T20:36:20.784Z,101070.06
2023-05-14T20:38:53.190Z,101069.19
2023-05-14T20:41:26.533Z,101075.50
2023-05-14T20:43:58.910Z,101066.59
2023-05-14T20:46:31.087Z,101069.34
2023-05-14T20:49:04.351Z,101071.09
2023-05-14T20:51:37.123Z,101065.75
2023-05-14T20:54:09.691Z,101072.91
2023-05-14T20:56:43.136Z,101064.88
2023-05-14T20:59:15.312Z,101076.47
2023-05-14T21:01:47.608Z,101064.00
2023-05-14T21:04:20.618Z,101071.09
2023-05-14T21:06:52.887Z,101065.75
2023-05-14T21:09:28.155Z,101064.88
2023-05-14T21:12:03.403Z,101071.88
2023-05-14T21:14:36.155Z,101061.16
2023-05-14T21:17:08.763Z,101060.22
2023-05-14T21:19:42.794Z,101067.38
2023-05-14T21:22:15.724Z,101062.91
2023-05-14T21:24:49.545Z,101066.44
2023-05-14T21:27:24.906Z,101065.59
2023-05-14T21:29:57.534Z,101066.44
2023-05-14T21:32:31.257Z,101063.69
2023-05-14T21:35:05.346Z,101061.94
2023-05-14T21:37:40.559Z,101062.84
2023-05-14T21:40:13.073Z,101069.06
2023-05-14T21:42:46.246Z,101067.31
2023-05-14T21:45:18.629Z,101069.06
2023-05-14T21:47:52.569Z,101073.50
2023-05-14T21:50:24.914Z,101070.81
2023-05-14T21:52:57.406Z,101070.81
2023-05-14T21:55:29.888Z,101064.56
2023-05-14T21:58:07.231Z,101068.13
2023-05-14T22:00:40.644Z,101065.44
2023-05-14T22:03:13.083Z,101068.13
2023-05-14T22:05:45.688Z,101065.44
2023-05-14T22:08:18.325Z,101066.31
2023-05-14T22:10:52.476Z,101064.47
2023-05-14T22:13:24.615Z,101060.94
2023-05-14T22:16:12.278Z,101065.38
2023-05-14T22:18:47.596Z,101052.91
2023-05-14T22:21:19.986Z,101051.09
2023-05-14T22:23:52.838Z,101061.81
2023-05-14T22:26:25.149Z,101060.09
2023-05-14T22:28:58.025Z,101058.19
2023-05-14T22:31:30.724Z,101056.44
2023-05-14T22:34:04.238Z,101048.41
2023-05-14T22:36:36.493Z,101051.09
2023-05-14T22:39:09.304Z,101051.09
2023-05-14T22:41:45.929Z,101063.56
2023-05-14T22:44:19.125Z,101052.84
2023-05-14T22:46:51.368Z,101052.84
2023-05-14T22:49:23.745Z,101051.97
2023-05-14T22:51:55.839Z,101052.84
2023-05-14T22:54:30.560Z,101047.47
2023-05-14T22:57:18.621Z,101050.16
2023-05-14T22:59:50.862Z,101052.84
2023-05-14T23:02:23.556Z,101048.34
2023-05-14T23:04:56.155Z,101043.03
2023-05-14T23:07:28.490Z,101050.16
2023-05-14T23:10:00.924Z,101042.13
2023-05-14T23:12:33.754Z,101041.25
2023-05-14T23:15:06.301Z,101046.50
2023-05-14T23:17:38.742Z,101042.13
2023-05-14T23:20:12.763Z,101042.13
2023-05-14T23:22:45.111Z,101052.84
2023-05-14T23:25:17.462Z,101047.47
2023-05-14T23:27:50.085Z,101051.09
2023-05-14T23:30:22.283Z,101053.69
2023-05-14T23:32:55.236Z,101050.16
2023-05-14T23:35:28.163Z,101054.53
2023-05-14T23:38:22.361Z,101054.53
2023-05-14T23:40:58.009Z,101052.84
2023-05-14T23:43:35.799Z,101050.16
2023-05-14T23:46:08.953Z,101042.13
2023-05-14T23:48:41.249Z,101048.34
2023-05-14T23:51:13.434Z,101042.13
2023-05-14T23:53:45.875Z,101044.78
2023-05-14T23:56:19.014Z,101043.81
2023-05-14T23:58:51.417Z,101044.78
